Airfield :
LOGIN :

Register | Disclaimer

   EN    FR    IT 

 










Legend :    VFR   Marginal VFR   IFR   Intensive IFR   Very Intensive IFR
Visi :
Ceiling :
>= 8 km
>= 3000ft
5 to 8 km
1000 to 3000 ft
1500m to 5 km
500 to 1000 ft
800 to 1500m
200 to 500 ft
< 800m
< 200 ft
Symbols :   Thunderstorms  Fog  Heavy snow  Heavy precipitations  Wind > 20 kt
SIGMETs :     Misc.  Thunderstorms  Icing  Turbulence  Mountain Waves  Volcanic Ashes






- Airport Elevation : 24 ft
- IATA code : IBZ


LEIB - Ibiza

CURRENT METAR :
  • 171800Z 29010KT 260V320 9999 FEW040 16/06 Q1029 NOSIG

EXPIRED METARs :
  • 171730Z 28012G22KT 240V300 9999 FEW040 16/06 Q1028 NOSIG
  • 171700Z 27017KT 9999 FEW040 17/06 Q1028 NOSIG
  • 171630Z 28016KT 9999 FEW040 17/06 Q1028 NOSIG
  • 171600Z 28017KT 9999 FEW040 17/06 Q1028 NOSIG
  • 171530Z 27019KT 240V320 CAVOK 17/06 Q1028 NOSIG

TAF TAF LEIB
Valid from the 17 at 15:00 until the 18 at 15:00 UTC


171400Z 1715/1815 24015KT CAVOK TX16/1813Z TN05/1806Z
TEMPO 1715/1718 27020G35KT
BECMG 1716/1718 04005KT



MET'MAP, your aeronautical weather chart ! - Copyright ORBIFLY December 2007 - Disclaimer

ORBIFLY MET'MAP TEAM :

Programming & Development : Alexandra Zaïnal
Concept & original design : Baudouin d'Aumeries
Assistance for programming : Marc-Olivier Méhu
Technical & hardware support : Manuel Goepfert

Contact : metmap@orbifly.com




SOURCES & CREDITS :

   NOAA